Time;durP1;ratioP1;P1;durP2;ratioP2;P2;SDS_P1;SDS_P2;PMS_P1;PMS_P2;Temp;Humidity;BMP_temperature;BMP_pressure;BME280_temperature;BME280_humidity;BME280_pressure;Samples;Min_cycle;Max_cycle;Signal;HPM_P1;HPM_P2
2023/10/09 00:02:11;;;;;;;10.90;6.30;;;20.10;57.90;;;;;;5049350;28;20450;-45
2023/10/09 00:04:38;;;;;;;11.30;6.00;;;20.20;57.50;;;;;;5042478;28;20465;-45
2023/10/09 00:07:07;;;;;;;7.90;6.33;;;20.20;57.20;;;;;;5040438;28;20450;-46
2023/10/09 00:09:45;;;;;;;7.17;5.60;;;20.20;57.20;;;;;;5038677;28;20479;-45
2023/10/09 00:12:15;;;;;;;7.87;6.17;;;20.20;57.30;;;;;;5042643;28;21453;-45
2023/10/09 00:14:44;;;;;;;7.93;6.47;;;20.20;57.40;;;;;;5043688;28;20439;-47
2023/10/09 00:19:38;;;;;;;9.90;5.70;;;20.10;57.90;;;;;;5036341;28;20503;-45
2023/10/09 00:22:04;;;;;;;10.43;5.80;;;20.10;58.00;;;;;;5035751;28;20919;-46
2023/10/09 00:24:33;;;;;;;8.93;6.47;;;20.10;58.00;;;;;;5038370;28;20200;-47
2023/10/09 00:27:12;;;;;;;9.60;5.67;;;20.10;57.80;;;;;;5038083;28;20443;-47
2023/10/09 00:29:45;;;;;;;7.97;6.20;;;20.00;57.90;;;;;;5037400;28;20498;-45
2023/10/09 00:32:26;;;;;;;10.90;5.70;;;20.10;58.00;;;;;;5035666;28;20505;-46
2023/10/09 00:34:52;;;;;;;9.43;6.80;;;20.00;57.90;;;;;;5034076;28;20454;-45
2023/10/09 00:37:25;;;;;;;7.10;5.10;;;20.10;57.70;;;;;;5045627;28;20505;-46
2023/10/09 00:39:57;;;;;;;9.17;5.57;;;20.10;57.50;;;;;;5046571;28;20205;-45
2023/10/09 00:42:29;;;;;;;9.67;6.07;;;20.10;57.50;;;;;;5045341;28;20439;-46
2023/10/09 00:44:56;;;;;;;13.00;5.93;;;20.10;57.70;;;;;;5044673;28;20449;-46
2023/10/09 00:47:26;;;;;;;10.77;6.83;;;20.10;57.70;;;;;;5045719;28;20440;-46
2023/10/09 00:50:11;;;;;;;8.40;5.67;;;20.10;57.50;;;;;;5038969;28;20428;-45
2023/10/09 00:53:30;;;;;;;9.33;5.33;;;20.00;57.60;;;;;;5046417;28;20423;-45
2023/10/09 00:55:45;;;;;;;15.70;6.53;;;20.00;57.40;;;;;;5024295;28;20444;-46
2023/10/09 00:58:16;;;;;;;13.83;5.80;;;20.10;57.20;;;;;;5053006;28;20450;-45
2023/10/09 01:00:46;;;;;;;12.03;6.53;;;20.00;57.30;;;;;;5047980;28;20474;-45
2023/10/09 01:03:20;;;;;;;8.83;5.60;;;20.00;57.30;;;;;;5045322;28;20443;-47
2023/10/09 01:05:56;;;;;;;8.60;6.27;;;20.00;57.40;;;;;;5049197;28;20423;-48
2023/10/09 01:08:30;;;;;;;6.33;5.20;;;20.00;57.50;;;;;;5050491;28;20478;-45
2023/10/09 01:11:09;;;;;;;11.97;6.33;;;19.80;57.70;;;;;;5050474;28;20604;-47
2023/10/09 01:13:41;;;;;;;9.30;5.00;;;19.80;57.70;;;;;;5049437;28;20442;-46
2023/10/09 01:16:15;;;;;;;10.73;5.70;;;19.80;57.70;;;;;;5050716;28;20439;-46
2023/10/09 01:18:41;;;;;;;8.80;5.23;;;19.80;58.00;;;;;;5050666;28;20438;-46
2023/10/09 01:21:07;;;;;;;9.00;6.10;;;19.70;58.20;;;;;;5049871;28;20448;-46
2023/10/09 01:23:32;;;;;;;12.47;6.50;;;19.70;58.30;;;;;;5051178;28;20576;-46
2023/10/09 01:25:58;;;;;;;6.23;5.10;;;19.80;58.00;;;;;;5042364;28;20192;-47
2023/10/09 01:28:24;;;;;;;11.10;5.97;;;19.80;57.80;;;;;;5047022;28;20713;-46
2023/10/09 01:30:51;;;;;;;8.60;5.53;;;19.90;58.00;;;;;;5039744;28;20199;-45
2023/10/09 01:33:27;;;;;;;9.87;5.50;;;19.90;57.70;;;;;;5045195;28;20447;-46
2023/10/09 01:35:59;;;;;;;12.80;5.80;;;20.00;57.60;;;;;;5041685;28;20446;-47
2023/10/09 01:38:41;;;;;;;11.07;6.10;;;19.90;57.30;;;;;;5041993;28;20447;-47
2023/10/09 01:41:16;;;;;;;6.73;4.70;;;19.90;57.20;;;;;;5046359;28;20450;-46
2023/10/09 01:43:44;;;;;;;11.53;6.33;;;19.60;57.50;;;;;;5047148;28;20446;-46
2023/10/09 01:46:16;;;;;;;8.77;5.73;;;19.50;58.10;;;;;;5051690;28;20450;-45
2023/10/09 01:48:46;;;;;;;7.60;5.47;;;19.50;58.60;;;;;;5051836;28;20490;-46
2023/10/09 01:51:18;;;;;;;10.70;6.40;;;19.40;58.70;;;;;;5051955;28;20953;-45
2023/10/09 01:53:54;;;;;;;7.47;5.20;;;19.40;58.80;;;;;;5047707;28;20483;-45
2023/10/09 01:56:19;;;;;;;9.30;5.93;;;19.50;58.70;;;;;;5051262;28;20468;-45
2023/10/09 01:58:47;;;;;;;8.03;5.30;;;19.50;58.60;;;;;;5048199;28;20998;-47
2023/10/09 02:01:14;;;;;;;10.70;5.37;;;19.60;58.30;;;;;;5050595;28;20271;-46
2023/10/09 02:03:42;;;;;;;11.17;5.43;;;19.60;58.60;;;;;;5050028;28;20574;-46
2023/10/09 02:06:25;;;;;;;7.83;5.27;;;19.60;58.60;;;;;;5040882;28;20432;-46
2023/10/09 02:08:53;;;;;;;8.30;6.30;;;19.70;58.70;;;;;;5046827;28;20581;-45
2023/10/09 02:11:35;;;;;;;10.40;5.80;;;19.70;58.50;;;;;;5040971;28;20978;-46
2023/10/09 02:14:01;;;;;;;10.83;5.10;;;19.60;58.60;;;;;;5041469;28;20454;-49
2023/10/09 02:16:41;;;;;;;8.10;5.27;;;19.70;58.60;;;;;;5040308;28;20455;-48
2023/10/09 02:19:08;;;;;;;7.37;5.10;;;19.60;58.50;;;;;;5043086;28;20450;-48
2023/10/09 02:21:34;;;;;;;9.47;5.80;;;19.60;58.70;;;;;;5041999;28;20494;-48
2023/10/09 02:24:09;;;;;;;10.80;5.40;;;19.60;58.70;;;;;;5043085;28;20475;-48
2023/10/09 02:29:23;;;;;;;10.33;6.07;;;19.70;58.60;;;;;;5043650;28;20544;-49
2023/10/09 02:31:51;;;;;;;14.60;6.80;;;19.70;58.50;;;;;;5041379;28;20447;-49
2023/10/09 02:34:27;;;;;;;9.27;5.10;;;19.70;58.40;;;;;;5039073;28;21406;-47
2023/10/09 02:37:05;;;;;;;6.03;4.60;;;19.70;58.40;;;;;;5042155;28;20439;-48
2023/10/09 02:39:36;;;;;;;8.43;5.67;;;19.70;58.40;;;;;;5048351;28;20446;-49
2023/10/09 02:42:19;;;;;;;7.80;5.20;;;19.70;58.40;;;;;;5046067;28;20444;-48
2023/10/09 02:44:50;;;;;;;15.90;6.10;;;19.70;58.40;;;;;;5046736;28;20465;-50
2023/10/09 02:47:29;;;;;;;15.67;5.07;;;19.70;58.20;;;;;;5047327;28;20458;-49
2023/10/09 02:50:00;;;;;;;8.33;5.03;;;19.70;58.20;;;;;;5041540;28;20467;-49
2023/10/09 02:52:32;;;;;;;10.57;5.90;;;19.70;58.60;;;;;;5052240;28;20898;-46
2023/10/09 02:55:07;;;;;;;10.20;5.63;;;19.70;58.70;;;;;;5051008;28;20435;-49
2023/10/09 02:57:36;;;;;;;7.90;5.23;;;19.70;58.50;;;;;;5052212;28;20439;-49
2023/10/09 03:00:08;;;;;;;11.70;6.10;;;19.70;58.50;;;;;;5049722;28;20447;-49
2023/10/09 03:02:34;;;;;;;11.80;6.13;;;19.60;58.50;;;;;;5051205;28;20443;-49
2023/10/09 03:04:59;;;;;;;7.63;5.47;;;19.40;58.80;;;;;;5049846;28;20443;-48
2023/10/09 03:07:25;;;;;;;6.00;4.90;;;19.20;59.70;;;;;;5050206;28;20203;-49
2023/10/09 03:09:50;;;;;;;7.23;5.30;;;19.20;59.80;;;;;;5045420;28;20234;-49
2023/10/09 03:12:18;;;;;;;9.90;6.00;;;19.20;59.50;;;;;;5046182;28;20308;-49
2023/10/09 03:14:44;;;;;;;11.17;5.83;;;19.20;59.70;;;;;;5043115;28;20193;-50
2023/10/09 03:17:11;;;;;;;11.10;5.60;;;19.30;59.50;;;;;;5044980;28;20462;-50
2023/10/09 03:19:37;;;;;;;11.20;6.30;;;19.30;59.10;;;;;;5037268;28;20193;-48
2023/10/09 03:22:09;;;;;;;15.60;5.80;;;19.20;59.20;;;;;;5044890;28;20455;-51
2023/10/09 03:24:43;;;;;;;11.53;6.07;;;19.20;59.90;;;;;;5050167;28;20454;-49
2023/10/09 03:27:08;;;;;;;9.03;5.87;;;19.20;59.50;;;;;;5037131;28;20543;-46
2023/10/09 03:29:34;;;;;;;10.77;5.47;;;19.00;59.70;;;;;;5047211;28;20578;-49
2023/10/09 03:32:00;;;;;;;12.23;6.17;;;19.00;59.80;;;;;;5048556;28;20224;-45
2023/10/09 03:34:25;;;;;;;8.83;5.60;;;19.00;60.00;;;;;;5047350;28;20598;-46
2023/10/09 03:37:03;;;;;;;7.00;5.43;;;19.00;60.00;;;;;;5049692;28;20492;-48
2023/10/09 03:39:47;;;;;;;11.90;6.10;;;19.10;59.70;;;;;;5040499;28;20678;-45
2023/10/09 03:42:19;;;;;;;9.50;6.00;;;19.10;59.70;;;;;;5046681;28;20454;-46
2023/10/09 03:44:49;;;;;;;9.13;6.50;;;19.10;59.60;;;;;;5049005;28;20462;-47
2023/10/09 03:47:16;;;;;;;9.60;5.80;;;19.10;59.40;;;;;;5051531;28;20529;-46
2023/10/09 03:49:43;;;;;;;9.10;5.37;;;19.00;59.50;;;;;;5049788;28;20862;-46
2023/10/09 03:52:09;;;;;;;10.47;6.17;;;19.00;59.60;;;;;;5049700;28;20443;-51
2023/10/09 03:54:35;;;;;;;9.07;5.63;;;19.00;59.50;;;;;;5041556;28;20447;-47
2023/10/09 03:57:01;;;;;;;6.90;4.63;;;19.00;59.50;;;;;;5043785;28;20247;-46
2023/10/09 03:59:31;;;;;;;7.43;5.33;;;19.00;59.50;;;;;;5043782;28;20554;-46
2023/10/09 04:01:58;;;;;;;7.33;5.20;;;18.90;59.50;;;;;;5045783;28;20939;-47
2023/10/09 04:04:24;;;;;;;8.40;5.10;;;19.00;59.50;;;;;;5040512;28;20435;-48
2023/10/09 04:06:53;;;;;;;11.93;6.00;;;18.90;59.70;;;;;;5038457;28;21074;-46
2023/10/09 04:12:34;;;;;;;8.03;5.47;;;18.80;59.90;;;;;;5048730;28;20483;-46
2023/10/09 04:14:35;;;;;;;11.83;5.40;;;18.70;60.00;;;;;;5033814;28;20834;-45
2023/10/09 04:17:06;;;;;;;11.43;5.90;;;18.70;60.30;;;;;;5045284;28;20993;-47
2023/10/09 04:19:38;;;;;;;11.73;5.97;;;18.70;60.10;;;;;;5046868;28;20447;-49
2023/10/09 04:22:08;;;;;;;11.10;5.83;;;18.80;59.90;;;;;;5040678;28;20455;-46
2023/10/09 04:24:44;;;;;;;9.03;4.90;;;18.80;59.80;;;;;;5042630;28;20454;-45
2023/10/09 04:27:16;;;;;;;11.83;5.20;;;18.90;60.20;;;;;;5037590;28;21087;-45
2023/10/09 04:29:46;;;;;;;10.97;5.57;;;19.00;59.40;;;;;;5042759;28;20544;-47
2023/10/09 04:32:15;;;;;;;10.70;6.27;;;19.00;59.40;;;;;;5039450;28;20443;-45
2023/10/09 04:34:48;;;;;;;9.50;6.00;;;19.00;59.40;;;;;;5040602;28;20446;-47
2023/10/09 04:39:47;;;;;;;8.17;6.07;;;18.80;59.80;;;;;;5047863;28;20542;-45
2023/10/09 04:42:26;;;;;;;9.33;5.53;;;18.70;59.80;;;;;;5049516;28;20458;-47
2023/10/09 04:47:36;;;;;;;11.23;6.10;;;18.80;59.40;;;;;;5048232;28;20443;-47
2023/10/09 04:50:08;;;;;;;10.87;6.23;;;18.90;59.20;;;;;;5046229;28;20530;-46
2023/10/09 04:57:46;;;;;;;10.00;5.50;;;18.80;59.00;;;;;;5049365;28;20222;-46
2023/10/09 05:02:56;;;;;;;7.23;5.70;;;18.80;59.00;;;;;;5048841;28;20447;-47
2023/10/09 05:08:21;;;;;;;9.27;5.00;;;18.80;59.20;;;;;;5041975;28;20506;-46
2023/10/09 05:18:56;;;;;;;12.87;5.20;;;18.70;59.90;;;;;;5046635;28;20592;-45
2023/10/09 05:21:36;;;;;;;9.20;5.30;;;18.90;62.50;;;;;;5044317;28;20530;-47
2023/10/09 05:24:16;;;;;;;9.90;4.90;;;19.20;62.10;;;;;;5046015;28;20439;-45
2023/10/09 05:32:48;;;;;;;9.20;5.17;;;19.70;58.40;;;;;;5089039;23;20508;-49
2023/10/09 05:35:19;;;;;;;8.60;4.93;;;19.70;57.90;;;;;;5065230;28;20430;-48
2023/10/09 05:37:45;;;;;;;9.50;5.10;;;19.60;57.70;;;;;;5054701;28;20448;-45
2023/10/09 05:47:56;;;;;;;11.13;5.77;;;19.30;58.20;;;;;;5071607;28;20476;-50
2023/10/09 06:03:23;;;;;;;10.50;6.07;;;19.10;58.60;;;;;;5070110;28;20994;-45
2023/10/09 06:14:04;;;;;;;8.43;5.93;;;19.10;58.70;;;;;;5070995;28;20521;-45
2023/10/09 06:19:08;;;;;;;9.30;4.67;;;19.20;58.60;;;;;;5073006;28;20425;-49
2023/10/09 06:29:36;;;;;;;8.47;5.57;;;19.30;58.50;;;;;;5067628;28;20481;-45
2023/10/09 06:34:45;;;;;;;9.17;5.70;;;19.30;58.80;;;;;;5064618;28;20444;-46
2023/10/09 06:42:31;;;;;;;8.93;5.10;;;18.80;59.80;;;;;;5071034;28;20465;-45
2023/10/09 06:45:05;;;;;;;6.60;5.13;;;19.00;59.60;;;;;;5068033;28;20810;-50
2023/10/09 06:47:40;;;;;;;11.90;6.33;;;18.70;60.30;;;;;;5072365;28;20512;-48
2023/10/09 06:56:05;;;;;;;16.50;6.20;;;19.00;60.10;;;;;;5065131;28;20817;-46
2023/10/09 06:58:41;;;;;;;9.87;6.00;;;19.00;59.70;;;;;;5062151;28;20457;-45
2023/10/09 07:01:19;;;;;;;14.00;5.50;;;19.10;59.50;;;;;;5052752;28;20588;-45
2023/10/09 07:03:59;;;;;;;10.57;4.90;;;19.20;59.10;;;;;;5049645;28;20457;-47
2023/10/09 07:16:58;;;;;;;14.17;5.97;;;19.70;57.70;;;;;;5065125;28;20454;-47
2023/10/09 07:24:56;;;;;;;12.80;5.33;;;20.00;57.20;;;;;;5061469;28;20508;-48
2023/10/09 07:30:35;;;;;;;8.63;4.87;;;20.00;57.30;;;;;;5063244;28;20480;-48
2023/10/09 07:38:20;;;;;;;10.73;5.47;;;20.20;56.70;;;;;;5062952;28;20447;-46
2023/10/09 07:40:59;;;;;;;10.53;4.80;;;20.20;57.00;;;;;;5067439;28;20444;-50
2023/10/09 07:43:46;;;;;;;10.20;4.90;;;20.30;57.20;;;;;;5070376;28;20537;-49
2023/10/09 07:46:51;;;;;;;8.43;5.27;;;20.40;57.10;;;;;;5061246;28;21455;-49
2023/10/09 07:49:24;;;;;;;10.30;5.07;;;20.50;57.10;;;;;;5059762;28;20482;-50
2023/10/09 07:51:52;;;;;;;8.43;4.70;;;20.60;56.80;;;;;;5069856;28;21116;-50
2023/10/09 07:54:31;;;;;;;8.73;6.03;;;20.70;56.70;;;;;;5057044;28;20450;-50
2023/10/09 07:57:08;;;;;;;10.57;6.03;;;20.70;56.50;;;;;;5064639;28;21250;-50
2023/10/09 07:59:41;;;;;;;13.23;6.13;;;20.80;56.60;;;;;;5067846;28;20475;-50
2023/10/09 08:02:13;;;;;;;13.30;5.67;;;20.80;56.50;;;;;;5063963;28;20448;-50
2023/10/09 08:04:47;;;;;;;18.87;6.20;;;20.80;56.80;;;;;;5065643;28;20434;-49
2023/10/09 08:07:25;;;;;;;12.77;5.57;;;20.90;56.70;;;;;;5064459;28;20461;-49
2023/10/09 08:11:38;;;;;;;12.03;5.67;;;20.90;56.50;;;;;;5064801;28;20489;-46
2023/10/09 08:13:49;;;;;;;11.40;6.10;;;21.00;56.40;;;;;;5061069;28;20454;-49
2023/10/09 08:15:51;;;;;;;10.33;4.50;;;21.20;56.30;;;;;;5055608;28;20466;-50
2023/10/09 08:18:27;;;;;;;10.00;5.37;;;21.30;56.00;;;;;;5062023;28;20445;-46
2023/10/09 08:23:29;;;;;;;12.73;5.90;;;21.30;55.60;;;;;;5067167;28;20449;-49
2023/10/09 08:26:13;;;;;;;11.00;5.70;;;21.30;56.20;;;;;;5070014;28;20469;-48
2023/10/09 08:28:42;;;;;;;13.60;5.60;;;21.40;56.20;;;;;;5065206;28;20833;-50
2023/10/09 08:33:57;;;;;;;9.57;5.07;;;21.50;55.60;;;;;;5060365;28;20449;-49
2023/10/09 08:36:28;;;;;;;10.43;5.53;;;21.60;55.60;;;;;;5060301;28;20453;-51
2023/10/09 08:39:08;;;;;;;11.07;4.83;;;21.70;55.30;;;;;;5058071;28;20446;-50
2023/10/09 08:41:33;;;;;;;11.00;5.97;;;21.80;55.30;;;;;;5061720;28;20916;-48
2023/10/09 08:44:00;;;;;;;13.30;5.70;;;22.00;55.30;;;;;;5059045;28;20426;-49
2023/10/09 08:46:27;;;;;;;10.23;5.03;;;22.10;55.10;;;;;;5056993;28;20764;-50
2023/10/09 08:48:56;;;;;;;10.67;5.43;;;22.10;54.70;;;;;;5055091;28;20473;-49
2023/10/09 08:51:24;;;;;;;14.73;5.10;;;22.20;54.40;;;;;;5067079;28;20458;-48
2023/10/09 08:53:49;;;;;;;13.07;5.57;;;22.20;54.00;;;;;;5067910;28;20564;-51
2023/10/09 08:56:23;;;;;;;11.17;5.70;;;22.30;54.20;;;;;;5059436;28;20513;-52
2023/10/09 08:58:59;;;;;;;11.13;4.97;;;22.40;54.10;;;;;;5064353;28;20184;-52
2023/10/09 09:01:25;;;;;;;8.73;4.97;;;22.50;54.30;;;;;;5059073;28;20786;-52
2023/10/09 09:03:55;;;;;;;9.67;5.57;;;22.60;53.80;;;;;;5062261;28;20447;-47
2023/10/09 09:06:21;;;;;;;23.50;5.20;;;22.60;53.60;;;;;;5066565;28;20442;-50
2023/10/09 09:08:47;;;;;;;11.93;4.80;;;22.70;53.20;;;;;;5065537;28;20490;-48
2023/10/09 09:11:17;;;;;;;9.73;4.43;;;22.80;53.20;;;;;;5068965;28;20237;-47
2023/10/09 09:13:50;;;;;;;11.03;5.40;;;22.80;54.00;;;;;;5068411;28;20473;-47
2023/10/09 09:16:29;;;;;;;11.90;5.50;;;22.90;54.20;;;;;;5058527;28;20786;-48
2023/10/09 09:21:44;;;;;;;11.50;5.13;;;23.10;54.20;;;;;;5065080;28;20481;-49
2023/10/09 09:27:12;;;;;;;10.37;4.93;;;23.30;54.50;;;;;;5073624;28;20567;-46
2023/10/09 09:29:37;;;;;;;12.60;4.70;;;23.30;53.40;;;;;;5058253;28;20486;-51
2023/10/09 09:32:18;;;;;;;11.27;4.90;;;23.50;52.10;;;;;;5071775;28;20485;-49
2023/10/09 09:34:49;;;;;;;20.03;5.47;;;23.50;51.60;;;;;;5067932;28;20196;-48
2023/10/09 09:38:17;;;;;;;14.57;5.73;;;23.70;50.90;;;;;;5069785;28;20442;-48
2023/10/09 09:40:14;;;;;;;11.13;7.00;;;23.70;51.50;;;;;;5062013;28;20544;-48
2023/10/09 09:42:45;;;;;;;11.33;6.70;;;23.70;54.20;;;;;;5060557;28;21023;-47
2023/10/09 09:45:11;;;;;;;9.60;5.60;;;23.70;55.00;;;;;;5063633;28;20438;-47
2023/10/09 09:47:37;;;;;;;11.43;6.23;;;23.60;56.30;;;;;;5068937;28;20429;-51
2023/10/09 09:50:22;;;;;;;13.37;6.57;;;23.60;56.20;;;;;;5066481;28;20226;-47
2023/10/09 09:52:53;;;;;;;12.50;5.13;;;23.60;56.40;;;;;;5060269;28;20441;-51
2023/10/09 09:55:22;;;;;;;14.53;6.27;;;23.70;55.80;;;;;;5073666;28;20422;-48
2023/10/09 09:57:51;;;;;;;15.00;5.90;;;23.90;55.10;;;;;;5072202;28;20426;-50
2023/10/09 10:00:29;;;;;;;11.73;5.70;;;24.00;54.20;;;;;;5066409;28;20430;-45
2023/10/09 10:03:00;;;;;;;10.70;5.30;;;24.10;53.50;;;;;;5065691;28;20442;-50
2023/10/09 10:05:29;;;;;;;18.87;7.00;;;24.20;53.00;;;;;;5064420;28;20521;-45
2023/10/09 10:07:58;;;;;;;11.20;5.40;;;24.30;52.60;;;;;;5072140;28;20449;-47
2023/10/09 10:10:55;;;;;;;17.87;5.23;;;24.40;52.40;;;;;;5072635;28;20447;-47
2023/10/09 10:13:43;;;;;;;13.30;4.80;;;24.50;51.40;;;;;;5072861;28;20418;-46
2023/10/09 10:16:11;;;;;;;13.90;5.90;;;24.60;51.30;;;;;;5069080;28;20979;-45
2023/10/09 10:18:52;;;;;;;20.40;6.27;;;24.80;51.50;;;;;;5072814;28;20442;-46
2023/10/09 10:21:17;;;;;;;15.97;5.03;;;24.90;50.70;;;;;;5069576;28;20499;-45
2023/10/09 10:23:47;;;;;;;16.53;5.97;;;24.80;49.50;;;;;;5063642;28;20439;-45
2023/10/09 10:26:30;;;;;;;11.30;4.87;;;24.90;49.70;;;;;;5064100;28;20196;-46
2023/10/09 10:29:26;;;;;;;12.97;6.00;;;25.10;48.90;;;;;;5071206;28;20485;-47
2023/10/09 10:32:08;;;;;;;14.77;4.80;;;25.20;48.60;;;;;;5067605;28;20482;-46
2023/10/09 10:34:58;;;;;;;17.63;6.30;;;25.30;48.20;;;;;;5072123;28;20442;-45
2023/10/09 10:37:44;;;;;;;15.93;4.90;;;25.50;47.50;;;;;;5069367;28;20446;-45
2023/10/09 10:40:37;;;;;;;14.43;5.10;;;25.40;46.10;;;;;;5069516;28;21001;-46
2023/10/09 10:43:13;;;;;;;21.00;5.10;;;25.50;46.10;;;;;;5066314;28;20446;-49
2023/10/09 10:45:44;;;;;;;14.13;5.33;;;25.60;46.40;;;;;;5061570;28;20442;-49
2023/10/09 10:48:22;;;;;;;20.10;5.27;;;25.80;46.70;;;;;;5071372;28;20509;-45
2023/10/09 10:50:57;;;;;;;14.07;5.33;;;25.80;46.30;;;;;;5070009;28;20599;-46
2023/10/09 10:53:26;;;;;;;16.87;5.10;;;25.80;45.30;;;;;;5065239;28;20433;-50
2023/10/09 11:01:50;;;;;;;13.40;6.40;;;25.90;44.90;;;;;;5062501;28;20445;-48
2023/10/09 11:04:24;;;;;;;12.67;5.37;;;26.00;46.00;;;;;;5061575;28;20948;-48
2023/10/09 11:07:00;;;;;;;16.70;5.97;;;26.20;45.10;;;;;;5069494;28;20490;-46
2023/10/09 11:09:35;;;;;;;13.90;6.07;;;26.30;44.80;;;;;;5060378;28;20493;-48
2023/10/09 11:12:21;;;;;;;16.20;6.33;;;26.20;45.50;;;;;;5068042;28;20446;-44
2023/10/09 11:15:05;;;;;;;15.10;4.90;;;26.30;45.70;;;;;;5068049;28;20597;-45
2023/10/09 11:17:32;;;;;;;10.00;5.03;;;26.50;44.90;;;;;;5071392;28;20896;-45
2023/10/09 11:20:22;;;;;;;18.57;5.00;;;26.60;44.90;;;;;;5072401;28;20510;-45
2023/10/09 11:23:05;;;;;;;16.13;5.30;;;26.70;44.60;;;;;;5066770;28;20442;-44
2023/10/09 11:25:30;;;;;;;14.50;6.10;;;26.80;44.30;;;;;;5070917;28;20929;-49
2023/10/09 11:27:56;;;;;;;11.83;5.70;;;27.00;45.20;;;;;;5068127;28;20434;-45
2023/10/09 11:30:32;;;;;;;19.00;6.00;;;27.20;43.60;;;;;;5067177;28;20434;-49
2023/10/09 11:33:05;;;;;;;9.57;4.00;;;27.30;42.60;;;;;;5068365;28;20254;-46
2023/10/09 11:35:35;;;;;;;18.17;5.87;;;27.50;43.00;;;;;;5070882;28;20442;-45
2023/10/09 11:38:01;;;;;;;15.50;5.87;;;27.50;41.60;;;;;;5071857;28;20429;-50
2023/10/09 11:43:15;;;;;;;28.13;6.10;;;27.80;41.90;;;;;;5059722;28;20944;-46
2023/10/09 11:45:54;;;;;;;17.60;4.27;;;27.80;41.00;;;;;;5070346;28;20430;-46
2023/10/09 11:48:46;;;;;;;17.20;5.87;;;27.80;40.60;;;;;;5067209;28;20211;-47
2023/10/09 11:51:18;;;;;;;17.47;6.20;;;27.80;41.40;;;;;;5056848;28;20443;-45
2023/10/09 11:53:49;;;;;;;12.53;5.43;;;27.80;41.90;;;;;;5067527;28;20793;-50
2023/10/09 11:56:19;;;;;;;15.03;5.40;;;27.80;42.60;;;;;;5067218;28;20602;-45
2023/10/09 11:58:49;;;;;;;14.10;4.70;;;27.70;42.80;;;;;;5061777;28;21099;-45
2023/10/09 12:01:20;;;;;;;16.73;5.37;;;27.70;43.00;;;;;;5066949;28;20826;-49
2023/10/09 12:03:49;;;;;;;14.63;4.90;;;27.70;42.00;;;;;;5063098;28;20930;-46
2023/10/09 12:06:18;;;;;;;13.40;4.80;;;27.60;42.00;;;;;;5068552;28;20560;-45
2023/10/09 12:08:48;;;;;;;13.80;5.33;;;27.60;42.30;;;;;;5057504;28;20542;-46
2023/10/09 12:11:28;;;;;;;17.80;4.87;;;27.50;42.20;;;;;;5068759;28;20445;-48
2023/10/09 12:13:57;;;;;;;12.10;4.70;;;27.60;42.60;;;;;;5071062;28;20425;-48
2023/10/09 12:16:27;;;;;;;13.30;4.77;;;27.60;42.50;;;;;;5068946;28;20482;-49
2023/10/09 12:18:53;;;;;;;20.27;6.70;;;27.70;42.30;;;;;;5067632;28;20933;-46
2023/10/09 12:21:20;;;;;;;17.50;5.40;;;27.70;42.20;;;;;;5063947;28;20898;-50
2023/10/09 12:23:47;;;;;;;14.67;3.83;;;27.80;42.10;;;;;;5064454;28;21038;-45
2023/10/09 12:26:16;;;;;;;13.13;4.47;;;27.80;42.00;;;;;;5068538;28;20449;-47
2023/10/09 12:28:45;;;;;;;16.97;5.30;;;27.80;42.80;;;;;;5069898;28;20504;-46
2023/10/09 12:31:14;;;;;;;12.90;4.80;;;27.90;43.30;;;;;;5064691;28;20469;-47
2023/10/09 12:33:40;;;;;;;17.47;4.60;;;27.90;42.90;;;;;;5063840;28;20457;-45
2023/10/09 12:36:17;;;;;;;21.07;4.37;;;27.80;42.90;;;;;;5060760;28;20439;-48
2023/10/09 12:38:46;;;;;;;15.47;5.07;;;27.80;43.00;;;;;;5066092;28;20200;-49
2023/10/09 12:41:27;;;;;;;20.43;4.67;;;27.80;42.50;;;;;;5064654;28;20901;-47
2023/10/09 12:43:54;;;;;;;18.60;5.20;;;27.50;42.50;;;;;;5081237;28;20476;-45
2023/10/09 12:46:25;;;;;;;21.60;6.90;;;27.50;42.50;;;;;;5064744;28;20438;-45
2023/10/09 12:48:54;;;;;;;12.60;4.27;;;27.70;42.40;;;;;;5067159;28;20528;-45
2023/10/09 12:51:20;;;;;;;12.97;5.60;;;27.90;41.70;;;;;;5068134;28;20913;-47
2023/10/09 12:53:50;;;;;;;15.30;4.97;;;28.00;42.10;;;;;;5070247;28;20464;-45
2023/10/09 12:56:18;;;;;;;25.37;5.00;;;28.20;42.10;;;;;;5069625;28;20524;-47
2023/10/09 12:58:52;;;;;;;19.77;5.13;;;28.30;41.20;;;;;;5068478;28;20433;-45
2023/10/09 13:01:20;;;;;;;16.27;4.13;;;28.30;40.90;;;;;;5063642;28;20962;-44
2023/10/09 13:03:49;;;;;;;13.83;4.47;;;28.40;39.80;;;;;;5058644;28;20467;-45
2023/10/09 13:06:15;;;;;;;17.23;5.20;;;28.40;39.30;;;;;;5066302;28;20446;-49
2023/10/09 13:08:42;;;;;;;16.23;4.80;;;28.40;38.90;;;;;;5064894;28;20885;-45
2023/10/09 13:11:12;;;;;;;12.83;5.10;;;28.30;39.70;;;;;;5071194;28;20188;-45
2023/10/09 13:13:42;;;;;;;13.10;4.70;;;28.30;38.40;;;;;;5071078;28;20865;-45
2023/10/09 13:16:20;;;;;;;9.80;4.70;;;28.50;38.60;;;;;;5072824;28;20495;-45
2023/10/09 13:18:49;;;;;;;12.30;4.90;;;28.50;38.10;;;;;;5069862;28;20468;-46
2023/10/09 13:21:16;;;;;;;19.83;5.77;;;28.50;37.90;;;;;;5069662;28;20449;-48
2023/10/09 13:23:46;;;;;;;14.90;5.07;;;28.70;37.60;;;;;;5072677;28;20445;-46
2023/10/09 13:26:18;;;;;;;15.00;5.77;;;28.80;36.50;;;;;;5071585;28;20441;-45
2023/10/09 13:28:48;;;;;;;13.10;5.60;;;29.00;36.20;;;;;;5072656;28;20488;-47
2023/10/09 13:31:15;;;;;;;13.40;5.50;;;29.20;34.80;;;;;;5065187;28;21009;-48
2023/10/09 13:33:42;;;;;;;12.47;5.03;;;29.40;33.80;;;;;;5071406;28;20461;-46
2023/10/09 13:36:19;;;;;;;12.20;5.43;;;29.50;33.10;;;;;;5074064;28;20529;-45
2023/10/09 13:38:47;;;;;;;12.47;5.27;;;29.60;33.30;;;;;;5073294;28;21307;-47
2023/10/09 13:41:17;;;;;;;14.13;5.27;;;29.70;34.20;;;;;;5070478;28;20468;-50
2023/10/09 13:43:43;;;;;;;13.20;4.90;;;30.00;33.70;;;;;;5068820;28;20548;-46
2023/10/09 13:46:12;;;;;;;9.83;6.00;;;30.10;33.00;;;;;;5071903;28;20517;-46
2023/10/09 13:48:43;;;;;;;12.83;5.87;;;30.10;30.50;;;;;;5071930;28;20979;-45
2023/10/09 13:51:13;;;;;;;14.47;6.30;;;30.10;31.70;;;;;;5073234;28;20935;-47
2023/10/09 13:53:46;;;;;;;12.00;5.47;;;30.30;31.20;;;;;;5071556;28;20537;-47
2023/10/09 13:56:19;;;;;;;14.17;5.70;;;30.50;29.90;;;;;;5069755;28;20509;-45
2023/10/09 13:58:51;;;;;;;14.30;6.33;;;30.50;28.90;;;;;;5067451;28;20521;-47
2023/10/09 14:01:36;;;;;;;15.20;7.70;;;30.50;27.20;;;;;;5069414;28;20429;-45
2023/10/09 14:04:01;;;;;;;9.13;5.90;;;30.40;27.30;;;;;;5069264;28;20833;-47
2023/10/09 14:06:30;;;;;;;14.80;6.40;;;30.60;27.80;;;;;;5072886;28;20438;-46
2023/10/09 14:09:05;;;;;;;15.27;7.17;;;30.60;27.30;;;;;;5060416;28;20573;-49
2023/10/09 14:11:44;;;;;;;13.40;6.17;;;30.50;25.80;;;;;;5065992;28;20954;-45
2023/10/09 14:14:11;;;;;;;13.07;7.27;;;30.60;25.80;;;;;;5071804;28;20522;-47
2023/10/09 14:16:37;;;;;;;14.53;6.73;;;30.70;26.60;;;;;;5071169;28;20944;-45
2023/10/09 14:19:07;;;;;;;13.13;7.00;;;30.80;26.20;;;;;;5072513;28;20437;-45
2023/10/09 14:21:37;;;;;;;16.63;6.47;;;30.90;26.40;;;;;;5067300;28;20666;-47
2023/10/09 14:24:15;;;;;;;16.73;7.37;;;30.90;25.80;;;;;;5069846;28;20484;-46
2023/10/09 14:26:46;;;;;;;12.20;6.80;;;30.90;26.00;;;;;;5060987;28;20434;-45
2023/10/09 14:29:16;;;;;;;10.00;7.37;;;30.90;25.70;;;;;;5069084;28;20494;-46
2023/10/09 14:31:43;;;;;;;14.73;8.33;;;30.80;25.50;;;;;;5072637;28;20855;-46
2023/10/09 14:34:09;;;;;;;12.47;8.00;;;30.80;25.80;;;;;;5071012;28;20497;-46
2023/10/09 14:36:35;;;;;;;12.87;7.60;;;30.70;26.00;;;;;;5066069;28;20442;-46
2023/10/09 14:39:01;;;;;;;17.00;7.87;;;30.70;26.60;;;;;;5069297;28;20661;-47
2023/10/09 14:41:27;;;;;;;11.53;7.63;;;30.70;27.10;;;;;;5068325;28;20608;-49
2023/10/09 14:43:54;;;;;;;9.90;6.50;;;30.60;26.10;;;;;;5072891;28;20476;-46
2023/10/09 14:46:27;;;;;;;13.03;7.60;;;30.60;25.90;;;;;;5071948;28;20441;-47
2023/10/09 14:48:53;;;;;;;16.10;8.87;;;30.60;25.60;;;;;;5069526;28;20871;-46
2023/10/09 14:51:29;;;;;;;9.63;7.47;;;30.60;25.40;;;;;;5066233;28;20448;-49
2023/10/09 14:54:01;;;;;;;10.03;8.30;;;30.50;24.80;;;;;;5066534;28;20475;-46
2023/10/09 14:56:30;;;;;;;13.20;7.90;;;30.30;24.20;;;;;;5064309;28;20503;-46
2023/10/09 14:58:58;;;;;;;10.37;7.20;;;30.10;24.10;;;;;;5064889;28;20838;-48
2023/10/09 15:01:25;;;;;;;13.33;8.23;;;30.00;24.50;;;;;;5068984;28;20476;-48
2023/10/09 15:03:55;;;;;;;11.03;7.93;;;29.90;24.60;;;;;;5066307;28;20527;-47
2023/10/09 15:06:21;;;;;;;10.00;7.50;;;30.00;24.80;;;;;;5059404;28;20932;-48
2023/10/09 15:08:47;;;;;;;11.07;8.93;;;29.90;25.10;;;;;;5061890;28;20462;-48
2023/10/09 15:11:14;;;;;;;14.57;7.50;;;29.80;25.30;;;;;;5066597;28;20499;-47
2023/10/09 15:13:40;;;;;;;10.97;8.27;;;29.70;25.10;;;;;;5064263;28;20188;-48
2023/10/09 15:16:06;;;;;;;13.20;7.63;;;29.80;25.30;;;;;;5062977;28;20434;-48
2023/10/09 15:18:37;;;;;;;9.07;7.03;;;29.80;25.50;;;;;;5061547;28;20555;-49
2023/10/09 15:21:02;;;;;;;12.13;6.93;;;29.70;25.40;;;;;;5068895;28;20735;-48